Time;durP1;ratioP1;P1;durP2;ratioP2;P2;SDS_P1;SDS_P2;PMS_P1;PMS_P2;Temp;Humidity;BMP_temperature;BMP_pressure;BME280_temperature;BME280_humidity;BME280_pressure;Samples;Min_cycle;Max_cycle;Signal;HPM_P1;HPM_P2
2022/04/14 00:06:15;;;;;;;27.2;33.8;;;;;;;5.3;59.1;99140;;;;
2022/04/14 00:16:15;;;;;;;27.2;33.8;;;;;;;5.1;60.6;99140;;;;
2022/04/14 00:31:39;;;;;;;20.1;25.6;;;;;;;4.8;59.8;99140;;;;
2022/04/14 00:41:39;;;;;;;20.1;25.6;;;;;;;4.7;62.3;99140;;;;
2022/04/14 00:52:39;;;;;;;20.3;26.7;;;;;;;4.6;61.2;99140;;;;
2022/04/14 01:03:39;;;;;;;20.3;26.7;;;;;;;4.5;62.4;99140;;;;
2022/04/14 01:13:39;;;;;;;20.3;26.7;;;;;;;4.4;64.5;99140;;;;
2022/04/14 01:23:39;;;;;;;22.7;32.7;;;;;;;4.3;64.3;99140;;;;
2022/04/14 01:33:39;;;;;;;22.7;32.7;;;;;;;4.2;64.3;99140;;;;
2022/04/14 01:43:39;;;;;;;22.7;32.7;;;;;;;4.2;65.4;99150;;;;
2022/04/14 01:54:39;;;;;;;18.9;27.4;;;;;;;4.2;63.8;99140;;;;
2022/04/14 02:05:39;;;;;;;18.9;27.4;;;;;;;4.2;64.5;99140;;;;
2022/04/14 02:15:39;;;;;;;18.9;27.4;;;;;;;4.1;64.8;99140;;;;
2022/04/14 02:26:39;;;;;;;25.2;33.3;;;;;;;4.1;66.6;99140;;;;
2022/04/14 02:36:39;;;;;;;25.2;33.3;;;;;;;4;66.5;99130;;;;
2022/04/14 02:46:39;;;;;;;25.2;33.3;;;;;;;4;66.4;99130;;;;
2022/04/14 02:56:39;;;;;;;26.8;33.6;;;;;;;3.9;67;99130;;;;
2022/04/14 03:07:39;;;;;;;26.8;33.6;;;;;;;3.9;67.5;99130;;;;
2022/04/14 03:17:39;;;;;;;26.8;33.6;;;;;;;3.9;67.9;99130;;;;
2022/04/14 03:28:39;;;;;;;21.6;26.8;;;;;;;3.8;67;99120;;;;
2022/04/14 03:38:39;;;;;;;21.6;26.8;;;;;;;3.7;67.2;99120;;;;
2022/04/14 03:48:39;;;;;;;20.5;25.9;;;;;;;3.6;68.2;99120;;;;
2022/04/14 03:58:39;;;;;;;20.5;25.9;;;;;;;3.6;68.4;99120;;;;
2022/04/14 04:08:39;;;;;;;20.5;25.9;;;;;;;3.6;69.3;99120;;;;
2022/04/14 04:18:39;;;;;;;20;28;;;;;;;3.7;67.9;99130;;;;
2022/04/14 04:28:39;;;;;;;20;28;;;;;;;3.8;68.2;99130;;;;
2022/04/14 04:39:39;;;;;;;20;28;;;;;;;4.1;67.7;99130;;;;
2022/04/14 04:50:39;;;;;;;20.4;29.1;;;;;;;4.5;67.2;99130;;;;
2022/04/14 05:01:39;;;;;;;20.4;29.1;;;;;;;5;68.1;99130;;;;
2022/04/14 05:12:39;;;;;;;20.4;29.1;;;;;;;5.4;67.2;99130;;;;
2022/04/14 05:22:39;;;;;;;28.8;37.4;;;;;;;5.9;66.7;99130;;;;
2022/04/14 05:33:39;;;;;;;28.8;37.4;;;;;;;6.5;66.1;99140;;;;
2022/04/14 05:43:39;;;;;;;28.8;37.4;;;;;;;7.1;64;99140;;;;
2022/04/14 05:54:39;;;;;;;32.5;45.2;;;;;;;7.5;62.4;99130;;;;
2022/04/14 06:04:39;;;;;;;32.5;45.2;;;;;;;8;61.6;99130;;;;
2022/04/14 06:14:39;;;;;;;32.5;45.2;;;;;;;8.6;59.6;99130;;;;
2022/04/14 06:24:39;;;;;;;26.1;35.2;;;;;;;9.2;58.8;99130;;;;
2022/04/14 06:34:39;;;;;;;26.1;35.2;;;;;;;9.8;57.5;99130;;;;
2022/04/14 06:45:39;;;;;;;26.1;35.2;;;;;;;10.2;56.2;99130;;;;
2022/04/14 06:55:42;;;;;;;20.8;28.3;;;;;;;10.5;55.7;99130;;;;
2022/04/14 07:05:39;;;;;;;20.8;28.3;;;;;;;11;55.2;99120;;;;
2022/04/14 07:16:39;;;;;;;20.8;28.3;;;;;;;11.2;55.4;99130;;;;
2022/04/14 07:26:39;;;;;;;19.9;29.5;;;;;;;11.5;54.9;99130;;;;
2022/04/14 07:37:39;;;;;;;19.9;29.5;;;;;;;11.7;54;99120;;;;
2022/04/14 07:48:39;;;;;;;17;22.7;;;;;;;12.5;53;99120;;;;
2022/04/14 07:58:39;;;;;;;17;22.7;;;;;;;13.2;52.6;99120;;;;
2022/04/14 08:09:39;;;;;;;17;22.7;;;;;;;14;49.7;99130;;;;
2022/04/14 08:20:39;;;;;;;14.7;24.6;;;;;;;14.7;49.4;99120;;;;
2022/04/14 08:30:40;;;;;;;14.7;24.6;;;;;;;15.2;48.3;99110;;;;
2022/04/14 08:40:39;;;;;;;14.7;24.6;;;;;;;15.8;46.8;99110;;;;
2022/04/14 08:50:39;;;;;;;11;19.4;;;;;;;16.3;44.8;99100;;;;
2022/04/14 09:01:39;;;;;;;11;19.4;;;;;;;16.9;42.4;99110;;;;
2022/04/14 09:11:39;;;;;;;11;19.4;;;;;;;17.1;40.7;99100;;;;
2022/04/14 09:22:39;;;;;;;8.2;13.4;;;;;;;17.8;40.4;99080;;;;
2022/04/14 09:33:39;;;;;;;8.2;13.4;;;;;;;18.1;38.4;99070;;;;
2022/04/14 09:44:39;;;;;;;8.2;13.4;;;;;;;18.4;38.5;99050;;;;
2022/04/14 09:54:40;;;;;;;6.3;10;;;;;;;18.9;36.6;99040;;;;
2022/04/14 10:05:39;;;;;;;6.3;10;;;;;;;19.2;36.5;99030;;;;
2022/04/14 10:15:39;;;;;;;6.3;10;;;;;;;19.5;32.7;99020;;;;
2022/04/14 10:26:39;;;;;;;6.3;9.4;;;;;;;19.7;32.7;99010;;;;
2022/04/14 10:36:39;;;;;;;6.3;9.4;;;;;;;19.7;33;99000;;;;
2022/04/14 10:47:39;;;;;;;7.1;12.3;;;;;;;20.2;33.2;99000;;;;
2022/04/14 10:57:39;;;;;;;7.1;12.3;;;;;;;19.9;31.8;98980;;;;
2022/04/14 11:08:39;;;;;;;7.1;12.3;;;;;;;19.8;32.4;98980;;;;
2022/04/14 11:18:39;;;;;;;4.9;9;;;;;;;20;32.6;98980;;;;
2022/04/14 11:29:39;;;;;;;4.9;9;;;;;;;20.4;31.6;98960;;;;
2022/04/14 11:40:39;;;;;;;4.9;9;;;;;;;20.6;30.5;98950;;;;
2022/04/14 11:51:39;;;;;;;5.8;9.2;;;;;;;20.9;32;98940;;;;
2022/04/14 12:02:39;;;;;;;5.8;9.2;;;;;;;20.9;31.3;98930;;;;
2022/04/14 12:12:39;;;;;;;5.8;9.2;;;;;;;21.2;33.2;98920;;;;
2022/04/14 12:23:39;;;;;;;7;13.5;;;;;;;21.2;32.6;98910;;;;
2022/04/14 12:33:39;;;;;;;7;13.5;;;;;;;21.4;32.9;98900;;;;
2022/04/14 12:44:39;;;;;;;7;13.5;;;;;;;21.5;31.7;98890;;;;
2022/04/14 12:55:39;;;;;;;7.8;11.3;;;;;;;21.4;35.3;98880;;;;
2022/04/14 13:05:39;;;;;;;7.8;11.3;;;;;;;21.5;33.4;98860;;;;
2022/04/14 13:16:39;;;;;;;7.8;11.3;;;;;;;21.8;33.7;98850;;;;
2022/04/14 13:26:39;;;;;;;11;16.3;;;;;;;22;32.9;98830;;;;
2022/04/14 13:37:39;;;;;;;11;16.3;;;;;;;21.7;34.2;98820;;;;
2022/04/14 13:48:39;;;;;;;8.8;13;;;;;;;22;32.6;98810;;;;
2022/04/14 13:59:39;;;;;;;8.8;13;;;;;;;22.3;32.1;98800;;;;
2022/04/14 14:10:40;;;;;;;8.8;13;;;;;;;22.3;31.9;98790;;;;
2022/04/14 14:21:39;;;;;;;8.1;11.1;;;;;;;22.5;32.7;98800;;;;
2022/04/14 14:32:39;;;;;;;8.1;11.1;;;;;;;22.6;32.4;98790;;;;
2022/04/14 14:42:39;;;;;;;8.1;11.1;;;;;;;22.7;32.2;98780;;;;
2022/04/14 14:53:39;;;;;;;5;7.9;;;;;;;23.6;31.6;98770;;;;
2022/04/14 15:03:39;;;;;;;5;7.9;;;;;;;24;30.6;98770;;;;
2022/04/14 15:14:39;;;;;;;5;7.9;;;;;;;25.3;28.4;98760;;;;
2022/04/14 15:24:40;;;;;;;5.3;8.2;;;;;;;27.2;27.2;98750;;;;
2022/04/14 15:34:39;;;;;;;5.3;8.2;;;;;;;27.2;26.8;98750;;;;
2022/04/14 15:44:39;;;;;;;5.3;8.2;;;;;;;27.7;26.9;98750;;;;
2022/04/14 15:54:39;;;;;;;5.1;9;;;;;;;28.1;25;98750;;;;
2022/04/14 16:05:39;;;;;;;5.1;9;;;;;;;27.6;25.9;98750;;;;
2022/04/14 16:16:39;;;;;;;5.1;9;;;;;;;27.6;25.6;98750;;;;
2022/04/14 16:27:40;;;;;;;4.7;10.7;;;;;;;26.6;27.5;98750;;;;
2022/04/14 16:38:39;;;;;;;4.7;10.7;;;;;;;24.7;29;98750;;;;
2022/04/14 16:48:42;;;;;;;4.7;8.9;;;;;;;23.5;30.3;98760;;;;
2022/04/14 16:59:39;;;;;;;4.7;8.9;;;;;;;22.1;32.6;98760;;;;
2022/04/14 17:10:39;;;;;;;4.7;8.9;;;;;;;20.9;34;98770;;;;
2022/04/14 17:20:39;;;;;;;5.4;10;;;;;;;19.8;37;98770;;;;
2022/04/14 17:31:39;;;;;;;5.4;10;;;;;;;18.6;39;98780;;;;
2022/04/14 17:41:40;;;;;;;5.4;10;;;;;;;17.9;41.3;98790;;;;
2022/04/14 17:52:39;;;;;;;9.9;14.5;;;;;;;17.1;42;98810;;;;
2022/04/14 18:03:39;;;;;;;9.9;14.5;;;;;;;16.5;44.3;98810;;;;
2022/04/14 18:13:39;;;;;;;9.9;14.5;;;;;;;16.1;45.3;98820;;;;
2022/04/14 18:24:39;;;;;;;12.6;16.8;;;;;;;15.7;46.1;98820;;;;
2022/04/14 18:35:39;;;;;;;12.6;16.8;;;;;;;15.3;47.1;98830;;;;
2022/04/14 18:45:39;;;;;;;12.6;16.8;;;;;;;14.8;48;98840;;;;
2022/04/14 18:56:39;;;;;;;20.5;27.1;;;;;;;14.1;48.9;98830;;;;
2022/04/14 19:06:39;;;;;;;20.5;27.1;;;;;;;13.6;50.7;98840;;;;
2022/04/14 19:16:39;;;;;;;20.5;27.1;;;;;;;13.3;51.1;98840;;;;
2022/04/14 19:27:39;;;;;;;20.5;24.1;;;;;;;13;51.4;98840;;;;
2022/04/14 19:37:39;;;;;;;20.5;24.1;;;;;;;12.6;53;98850;;;;
2022/04/14 19:48:40;;;;;;;25.2;36.2;;;;;;;12.2;56.6;98860;;;;
2022/04/14 19:59:39;;;;;;;25.2;36.2;;;;;;;11.9;59.1;98860;;;;
2022/04/14 20:09:39;;;;;;;25.2;36.2;;;;;;;11.9;61.5;98860;;;;
2022/04/14 20:19:39;;;;;;;34.2;43.3;;;;;;;11.8;59.5;98870;;;;
2022/04/14 20:30:39;;;;;;;34.2;43.3;;;;;;;12;58.6;98870;;;;
2022/04/14 20:40:39;;;;;;;34.2;43.3;;;;;;;11.8;58.1;98880;;;;
2022/04/14 20:51:39;;;;;;;26.3;32.1;;;;;;;11.6;58;98880;;;;
2022/04/14 21:01:39;;;;;;;26.3;32.1;;;;;;;11.5;57.4;98880;;;;
2022/04/14 21:12:39;;;;;;;26.3;32.1;;;;;;;11.3;57.8;98880;;;;
2022/04/14 21:22:39;;;;;;;19.1;25.5;;;;;;;11.2;57.2;98880;;;;
2022/04/14 21:32:39;;;;;;;19.1;25.5;;;;;;;11.4;57.2;98880;;;;
2022/04/14 21:42:39;;;;;;;19.1;25.5;;;;;;;12;56.6;98880;;;;
2022/04/14 21:53:39;;;;;;;18.3;23.5;;;;;;;12.3;54.8;98880;;;;
2022/04/14 22:03:39;;;;;;;18.3;23.5;;;;;;;12.3;53.3;98880;;;;
2022/04/14 22:14:39;;;;;;;18.3;23.5;;;;;;;12.4;51.1;98870;;;;
2022/04/14 22:25:39;;;;;;;16.5;21.5;;;;;;;12.8;47.5;98860;;;;
2022/04/14 22:36:39;;;;;;;16.5;21.5;;;;;;;13;45.1;98860;;;;
2022/04/14 22:47:39;;;;;;;9.2;13;;;;;;;12.7;44.8;98850;;;;
2022/04/14 22:57:40;;;;;;;9.2;13;;;;;;;12.9;42.8;98850;;;;
2022/04/14 23:07:39;;;;;;;9.2;13;;;;;;;12.7;43.3;98840;;;;
2022/04/14 23:17:39;;;;;;;7.9;10.6;;;;;;;12.6;43;98850;;;;
2022/04/14 23:27:39;;;;;;;7.9;10.6;;;;;;;12.5;43.3;98840;;;;
2022/04/14 23:37:39;;;;;;;7.9;10.6;;;;;;;12.6;43.3;98830;;;;
2022/04/14 23:48:39;;;;;;;7.8;11.1;;;;;;;12.4;43.4;98830;;;;
2022/04/14 23:58:39;;;;;;;7.8;11.1;;;;;;;12.2;44.1;98830;;;;
